Airfield :
LOGIN :

Register | Disclaimer

   EN    FR    IT 

 










Legend :    VFR   Marginal VFR   IFR   Intensive IFR   Very Intensive IFR
Visi :
Ceiling :
>= 8 km
>= 3000ft
5 to 8 km
1000 to 3000 ft
1500m to 5 km
500 to 1000 ft
800 to 1500m
200 to 500 ft
< 800m
< 200 ft
Symbols :   Thunderstorms  Fog  Heavy snow  Heavy precipitations  Wind > 20 kt
SIGMETs :     Misc.  Thunderstorms  Icing  Turbulence  Mountain Waves  Volcanic Ashes






- Airport Elevation : 529 ft
- IATA code : CHR


LFLX - Chateauroux

CURRENT METAR :
  • 021230Z AUTO 03008KT 9999 BKN014 BKN019 BKN024 05/03 Q1018 TEMPO BKN008

EXPIRED METARs :
  • 021200Z AUTO 03007KT 9999 OVC013 06/04 Q1018 TEMPO BKN008
  • 021130Z AUTO 03008KT 9999 BKN010 OVC014 06/04 Q1019 BECMG FEW015 BKN030
  • 021100Z AUTO 04008KT 360V060 9999 BKN008 BKN012 OVC041 05/03 Q1019 BECMG FEW015 BKN030
  • 021030Z AUTO 03008KT 9999 OVC009 05/04 Q1020 BECMG FEW015 BKN030
  • 021000Z AUTO 04007KT 9999 BKN009 OVC038 05/03 Q1020 NOSIG

TAF TAF LFLX
Valid from the 02 at 12:00 until the 03 at 18:00 UTC


021100Z 0212/0318 04008KT 9999 BKN020
TEMPO 0212/0220 BKN008
TEMPO 0220/0310 3000 -RADZ BKN006
PROB30
TEMPO 0300/0308 1200 -SN BKN003
TEMPO 0310/0318 BKN012



MET'MAP, your aeronautical weather chart ! - Copyright ORBIFLY December 2007 - Disclaimer

ORBIFLY MET'MAP TEAM :

Programming & Development : Alexandra Zaïnal
Original concept : Baudouin d'Aumeries
Technical & hardware support : Manuel Goepfert
Assistance : Marc-Olivier Méhu




SOURCES & CREDITS :

   NOAA